Terminal Aerodrome Forecast
Issued by NWS

Home | Current Version | Previous Version | Text Only | Print | Product List | Glossary On
Versions: 1 2 3 4 5 6 7 8 9 10 11 12 13 14 15 16 17 18
000
FTUS44 KTSA 021100
TAFRVS
TAF
KRVS 021125Z 0212/0312 17013KT P6SM BKN035
      TEMPO 0212/0216 VRB20G30KT 2SM TSRA BKN025CB
     FM021600 14010KT P6SM SCT040 BKN250
     FM022100 16010KT P6SM SCT050 BKN250 PROB30 0221/0303 -TSRA
      BKN050CB
     FM030300 14006KT P6SM BKN250=

USA.gov is the U.S. government's official web portal to all federal, state and local government web resources and services.